Time;durP1;ratioP1;P1;durP2;ratioP2;P2;SDS_P1;SDS_P2;PMS_P1;PMS_P2;Temp;Humidity;BMP_temperature;BMP_pressure;BME280_temperature;BME280_humidity;BME280_pressure;Samples;Min_cycle;Max_cycle;Signal;HPM_P1;HPM_P2
2022/08/07 00:01:11;;;;;;;1999.90;999.90;;;9.70;99.90;;;;;;5117246;27;20039;-75
2022/08/07 00:03:37;;;;;;;1999.90;999.90;;;9.70;99.90;;;;;;5129588;27;20548;-75
2022/08/07 00:06:04;;;;;;;1999.90;999.90;;;9.70;99.90;;;;;;5130933;27;20039;-75
2022/08/07 00:08:29;;;;;;;1999.90;999.90;;;9.60;99.90;;;;;;5106290;27;20504;-74
2022/08/07 00:10:55;;;;;;;1999.90;999.90;;;9.60;99.90;;;;;;5123902;27;20058;-75
2022/08/07 00:13:21;;;;;;;1999.90;999.90;;;9.60;99.90;;;;;;5111871;27;20505;-74
2022/08/07 00:15:48;;;;;;;1999.90;999.90;;;9.60;99.90;;;;;;5128008;27;20034;-74
2022/08/07 00:18:15;;;;;;;1999.90;999.90;;;9.60;99.90;;;;;;5136684;27;20039;-74
2022/08/07 00:20:41;;;;;;;1999.90;999.90;;;9.50;99.90;;;;;;5128817;27;20403;-74
2022/08/07 00:23:07;;;;;;;1999.90;999.90;;;9.50;99.90;;;;;;5131495;27;20031;-74
2022/08/07 00:25:34;;;;;;;1999.90;999.90;;;9.50;99.90;;;;;;5117986;27;20039;-74
2022/08/07 00:27:59;;;;;;;1999.90;999.90;;;9.50;99.90;;;;;;5131693;27;20070;-74
2022/08/07 00:30:25;;;;;;;1999.90;999.90;;;9.40;99.90;;;;;;5142230;27;20670;-74
2022/08/07 00:32:51;;;;;;;1999.90;999.90;;;9.40;99.90;;;;;;5128644;27;20035;-74
2022/08/07 00:35:18;;;;;;;1999.90;999.90;;;9.40;99.90;;;;;;5130116;27;20541;-74
2022/08/07 00:37:44;;;;;;;1999.90;999.90;;;9.40;99.90;;;;;;5129729;27;20066;-74
2022/08/07 00:40:10;;;;;;;1999.90;999.90;;;9.30;99.90;;;;;;5129357;27;20588;-74
2022/08/07 00:42:36;;;;;;;1999.90;999.90;;;9.30;99.90;;;;;;5103842;27;20054;-75
2022/08/07 00:45:03;;;;;;;1999.90;999.90;;;9.30;99.90;;;;;;5096936;27;20495;-74
2022/08/07 00:47:29;;;;;;;1999.90;999.90;;;9.30;99.90;;;;;;5137831;27;20060;-75
2022/08/07 00:49:55;;;;;;;1999.90;999.90;;;9.30;99.90;;;;;;5107404;27;20126;-74
2022/08/07 00:52:21;;;;;;;1999.90;999.90;;;9.30;99.90;;;;;;5130083;27;20448;-74
2022/08/07 00:54:47;;;;;;;1999.90;999.90;;;9.30;99.90;;;;;;5126097;27;20046;-74
2022/08/07 00:57:14;;;;;;;1999.90;999.90;;;9.30;99.90;;;;;;5129497;27;20043;-74
2022/08/07 00:59:40;;;;;;;1999.90;999.90;;;9.30;99.90;;;;;;5107923;27;20500;-74
2022/08/07 01:02:07;;;;;;;1999.90;999.90;;;9.30;99.90;;;;;;5129480;27;20068;-74
2022/08/07 01:04:33;;;;;;;1999.90;999.90;;;9.30;99.90;;;;;;5110172;27;20046;-75
2022/08/07 01:07:00;;;;;;;1999.90;999.90;;;9.20;99.90;;;;;;5127913;27;20031;-74
2022/08/07 01:09:26;;;;;;;1999.90;999.90;;;9.20;99.90;;;;;;5124801;27;20045;-74
2022/08/07 01:11:53;;;;;;;1999.90;999.90;;;9.20;99.90;;;;;;5106823;27;20034;-75
2022/08/07 01:14:20;;;;;;;1999.90;999.90;;;9.10;99.90;;;;;;5111126;27;20039;-74
2022/08/07 01:16:46;;;;;;;1999.90;999.90;;;9.10;99.90;;;;;;5090201;28;20055;-75
2022/08/07 01:19:13;;;;;;;1999.90;999.90;;;9.00;99.90;;;;;;5099715;27;20039;-74
2022/08/07 01:21:40;;;;;;;1999.90;999.90;;;9.00;99.90;;;;;;5109599;28;20376;-74
2022/08/07 01:24:06;;;;;;;1999.90;999.90;;;9.00;99.90;;;;;;5105398;27;20042;-74
2022/08/07 01:26:33;;;;;;;1999.90;999.90;;;9.00;99.90;;;;;;5108747;28;20395;-75
2022/08/07 01:28:59;;;;;;;1999.90;999.90;;;8.90;99.90;;;;;;5108902;27;20067;-74
2022/08/07 01:31:30;;;;;;;1999.90;999.90;;;8.90;99.90;;;;;;5130929;27;20514;-74
2022/08/07 01:34:01;;;;;;;1999.90;999.90;;;8.90;99.90;;;;;;5129456;27;20054;-74
2022/08/07 01:36:28;;;;;;;1999.90;999.90;;;8.80;99.90;;;;;;5137741;27;20051;-74
2022/08/07 01:38:55;;;;;;;1999.90;999.90;;;8.80;99.90;;;;;;5108119;28;20374;-74
2022/08/07 01:41:22;;;;;;;1999.90;999.90;;;8.80;99.90;;;;;;5130197;27;20062;-75
2022/08/07 01:43:49;;;;;;;1999.90;999.90;;;8.80;99.90;;;;;;5127496;28;20216;-74
2022/08/07 01:46:19;;;;;;;1999.90;999.90;;;8.80;99.90;;;;;;5130565;27;20035;-74
2022/08/07 01:48:47;;;;;;;1999.90;999.90;;;8.80;99.90;;;;;;5110117;28;20035;-74
2022/08/07 01:51:23;;;;;;;1999.90;999.90;;;8.80;99.90;;;;;;5128374;27;20039;-75
2022/08/07 01:53:56;;;;;;;1999.90;999.90;;;8.70;99.90;;;;;;5130459;27;20035;-74
2022/08/07 01:56:25;;;;;;;1999.90;999.90;;;8.70;99.90;;;;;;5110689;28;20122;-75
2022/08/07 01:59:06;;;;;;;1999.90;999.90;;;8.70;99.90;;;;;;5127912;27;20066;-75
2022/08/07 02:01:38;;;;;;;1999.90;999.90;;;8.60;99.90;;;;;;5099023;27;20076;-74
2022/08/07 02:04:31;;;;;;;1999.90;999.90;;;8.60;99.90;;;;;;5114633;27;20043;-75
2022/08/07 02:06:59;;;;;;;1999.90;999.90;;;8.60;99.90;;;;;;5121803;27;20046;-74
2022/08/07 02:09:27;;;;;;;1999.90;999.90;;;8.50;99.90;;;;;;5105305;27;20135;-74
2022/08/07 02:11:55;;;;;;;1999.90;999.90;;;8.60;99.90;;;;;;5133199;27;20041;-74
2022/08/07 02:14:23;;;;;;;1999.90;999.90;;;8.60;99.90;;;;;;5137920;27;20086;-74
2022/08/07 02:16:52;;;;;;;1999.90;999.90;;;8.60;99.90;;;;;;5127037;27;20032;-74
2022/08/07 02:19:19;;;;;;;1999.90;999.90;;;8.60;99.90;;;;;;5118565;27;20035;-74
2022/08/07 02:21:46;;;;;;;1999.90;999.90;;;8.50;99.90;;;;;;5133396;27;20042;-74
2022/08/07 02:24:13;;;;;;;1999.90;999.90;;;8.50;99.90;;;;;;5092683;27;20047;-74
2022/08/07 02:26:40;;;;;;;1999.90;999.90;;;8.50;99.90;;;;;;5140674;27;20063;-74
2022/08/07 02:29:09;;;;;;;1999.90;999.90;;;8.50;99.90;;;;;;5134758;27;20053;-74
2022/08/07 02:31:36;;;;;;;1999.90;999.90;;;8.50;99.90;;;;;;5134858;27;20031;-74
2022/08/07 02:34:04;;;;;;;1999.90;999.90;;;8.50;99.90;;;;;;5129772;27;20462;-74
2022/08/07 02:36:31;;;;;;;1999.90;999.90;;;8.40;99.90;;;;;;5118712;27;20100;-74
2022/08/07 02:38:59;;;;;;;1999.90;999.90;;;8.40;99.90;;;;;;5115681;27;20056;-74
2022/08/07 02:41:25;;;;;;;1999.90;999.90;;;8.40;99.90;;;;;;5130945;27;20128;-74
2022/08/07 02:43:52;;;;;;;1999.90;999.90;;;8.40;99.90;;;;;;5095276;27;20035;-74
2022/08/07 02:46:19;;;;;;;1999.90;999.90;;;8.50;99.90;;;;;;5134462;27;21022;-74
2022/08/07 02:48:45;;;;;;;1999.90;999.90;;;8.50;99.90;;;;;;5133635;27;20035;-74
2022/08/07 02:51:17;;;;;;;1999.90;999.90;;;8.50;99.90;;;;;;5135141;27;20078;-75
2022/08/07 02:53:45;;;;;;;1999.90;999.90;;;8.50;99.90;;;;;;5136031;27;20087;-75
2022/08/07 02:56:13;;;;;;;1999.90;999.90;;;8.50;99.90;;;;;;5114134;27;20398;-75
2022/08/07 02:58:41;;;;;;;1999.90;999.90;;;8.60;99.90;;;;;;5088507;28;20145;-74
2022/08/07 03:01:10;;;;;;;1999.90;999.90;;;8.60;99.90;;;;;;5123634;27;20047;-75
2022/08/07 03:03:37;;;;;;;1999.90;999.90;;;8.60;99.90;;;;;;5096134;27;20327;-75
2022/08/07 03:06:04;;;;;;;1999.90;999.90;;;8.60;99.90;;;;;;5113902;27;20410;-74
2022/08/07 03:08:30;;;;;;;1999.90;999.90;;;8.70;99.90;;;;;;5130148;27;20039;-74
2022/08/07 03:10:56;;;;;;;1999.90;999.90;;;8.70;99.90;;;;;;5131982;27;20153;-75
2022/08/07 03:13:23;;;;;;;1999.90;999.90;;;8.60;99.90;;;;;;5132271;27;20043;-74
2022/08/07 03:15:50;;;;;;;1999.90;999.90;;;8.60;99.90;;;;;;5131034;27;20039;-74
2022/08/07 03:18:16;;;;;;;1999.90;999.90;;;8.60;99.90;;;;;;5119762;27;20035;-74
2022/08/07 03:20:43;;;;;;;1999.90;999.90;;;8.60;99.90;;;;;;5090222;27;20125;-75
2022/08/07 03:23:09;;;;;;;1999.90;999.90;;;8.50;99.90;;;;;;5109724;27;20039;-74
2022/08/07 03:25:39;;;;;;;1999.90;999.90;;;8.40;99.90;;;;;;5132202;27;20035;-75
2022/08/07 03:28:06;;;;;;;1999.90;999.90;;;8.40;99.90;;;;;;5131847;27;20054;-75
2022/08/07 03:30:32;;;;;;;1999.90;999.90;;;8.30;99.90;;;;;;5131804;27;20087;-74
2022/08/07 03:33:00;;;;;;;1999.90;999.90;;;8.30;99.90;;;;;;5121782;27;20486;-74
2022/08/07 03:35:27;;;;;;;1999.90;999.90;;;8.30;99.90;;;;;;5111839;27;20102;-74
2022/08/07 03:37:57;;;;;;;1999.90;999.90;;;8.30;99.90;;;;;;5129591;27;20039;-74
2022/08/07 03:40:24;;;;;;;1999.90;999.90;;;8.30;99.90;;;;;;5129574;27;20055;-74
2022/08/07 03:42:54;;;;;;;1999.90;999.90;;;8.20;99.90;;;;;;5112989;27;20054;-74
2022/08/07 03:45:21;;;;;;;1999.90;999.90;;;8.20;99.90;;;;;;5112756;27;20043;-74
2022/08/07 03:47:48;;;;;;;1999.90;999.90;;;8.20;99.90;;;;;;5118830;27;20675;-74
2022/08/07 03:50:16;;;;;;;1999.90;999.90;;;8.20;99.90;;;;;;5113216;27;20043;-74
2022/08/07 03:52:44;;;;;;;1999.90;999.90;;;8.20;99.90;;;;;;5095862;27;20046;-74
2022/08/07 03:55:10;;;;;;;1999.90;999.90;;;8.20;99.90;;;;;;5126878;27;20114;-74
2022/08/07 03:57:39;;;;;;;1999.90;999.90;;;8.20;99.90;;;;;;5118849;27;20042;-74
2022/08/07 04:00:07;;;;;;;1999.90;999.90;;;8.10;99.90;;;;;;5128148;27;20043;-74
2022/08/07 04:02:35;;;;;;;1999.90;999.90;;;8.10;99.90;;;;;;5126508;27;20497;-74
2022/08/07 04:05:01;;;;;;;1999.90;999.90;;;8.10;99.90;;;;;;5132926;27;20063;-74
2022/08/07 04:07:27;;;;;;;1999.90;999.90;;;8.10;99.90;;;;;;5130888;27;20034;-74
2022/08/07 04:09:58;;;;;;;1999.90;999.90;;;8.10;99.90;;;;;;5134457;27;20504;-74
2022/08/07 04:12:24;;;;;;;1999.90;999.90;;;8.10;99.90;;;;;;5117768;27;20070;-75
2022/08/07 04:14:51;;;;;;;1999.90;999.90;;;8.10;99.90;;;;;;5130118;27;20116;-75
2022/08/07 04:17:17;;;;;;;1999.90;999.90;;;8.10;99.90;;;;;;5129305;27;20126;-74
2022/08/07 04:19:43;;;;;;;1999.90;999.90;;;8.10;99.90;;;;;;5124079;27;20045;-74
2022/08/07 04:22:11;;;;;;;1999.90;999.90;;;8.10;99.90;;;;;;5113675;27;20027;-74
2022/08/07 04:24:38;;;;;;;1999.90;999.90;;;8.10;99.90;;;;;;5126637;27;20034;-74
2022/08/07 04:27:04;;;;;;;1999.90;999.90;;;8.10;99.90;;;;;;5111962;27;20039;-74
2022/08/07 04:29:30;;;;;;;1999.90;999.90;;;8.10;99.90;;;;;;5136894;27;20204;-74
2022/08/07 04:31:56;;;;;;;1999.90;999.90;;;8.10;99.90;;;;;;5112952;27;20031;-74
2022/08/07 04:34:22;;;;;;;1999.90;999.90;;;8.20;99.90;;;;;;5144822;27;20030;-74
2022/08/07 04:36:48;;;;;;;1999.90;999.90;;;8.20;99.90;;;;;;5126279;27;20536;-74
2022/08/07 04:39:14;;;;;;;1999.90;999.90;;;8.20;99.90;;;;;;5131272;27;20455;-74
2022/08/07 04:41:40;;;;;;;1999.90;999.90;;;8.20;99.90;;;;;;5129815;27;20120;-75
2022/08/07 04:44:05;;;;;;;1999.90;999.90;;;8.20;99.90;;;;;;5132457;27;20035;-75
2022/08/07 04:46:54;;;;;;;1999.90;999.90;;;8.30;99.90;;;;;;5114272;27;20047;-74
2022/08/07 04:50:00;;;;;;;1999.90;999.90;;;8.30;99.90;;;;;;5129930;27;20153;-74
2022/08/07 04:52:45;;;;;;;1999.90;999.90;;;8.30;99.90;;;;;;5063891;28;20057;-74
2022/08/07 04:55:33;;;;;;;1999.90;999.90;;;8.40;99.90;;;;;;5003722;28;20057;-74
2022/08/07 04:58:20;;;;;;;1999.90;999.90;;;8.40;99.90;;;;;;5007261;28;20168;-74
2022/08/07 05:00:59;;;;;;;1999.90;999.90;;;8.50;99.90;;;;;;5007608;28;20080;-74
2022/08/07 05:03:45;;;;;;;1999.90;999.90;;;8.50;99.90;;;;;;5021578;28;20049;-74
2022/08/07 05:06:17;;;;;;;1999.90;999.90;;;8.60;99.90;;;;;;5020171;28;20414;-74
2022/08/07 05:09:11;;;;;;;1999.90;999.90;;;8.70;99.90;;;;;;4958596;28;20058;-74
2022/08/07 05:11:43;;;;;;;1999.90;999.90;;;8.80;99.90;;;;;;4979107;28;20208;-75
2022/08/07 05:14:21;;;;;;;1999.90;999.90;;;8.90;99.90;;;;;;4968732;28;20088;-74
2022/08/07 05:16:52;;;;;;;1999.90;999.90;;;9.00;99.90;;;;;;4959531;28;20050;-74
2022/08/07 05:19:21;;;;;;;1999.90;999.90;;;9.10;99.90;;;;;;4975741;28;20055;-74
2022/08/07 05:21:51;;;;;;;1999.90;999.90;;;9.20;99.90;;;;;;4985897;28;20046;-74
2022/08/07 05:24:41;;;;;;;1999.90;999.90;;;9.20;99.90;;;;;;4924497;29;20505;-75
2022/08/07 05:27:11;;;;;;;1999.90;999.90;;;9.30;99.90;;;;;;4915755;29;20052;-75
2022/08/07 05:29:39;;;;;;;1999.90;999.90;;;9.40;99.90;;;;;;4923125;29;20058;-75
2022/08/07 05:32:09;;;;;;;1999.90;999.90;;;9.60;99.90;;;;;;4939567;28;20122;-75
2022/08/07 05:34:36;;;;;;;1999.90;999.90;;;9.80;99.90;;;;;;4973300;28;20066;-75
2022/08/07 05:37:02;;;;;;;1999.90;999.90;;;9.90;99.90;;;;;;4960787;28;20059;-74
2022/08/07 05:39:28;;;;;;;1999.90;999.90;;;10.20;99.90;;;;;;4964118;28;20138;-75
2022/08/07 05:41:57;;;;;;;1999.90;999.90;;;10.40;99.90;;;;;;4945138;28;20053;-74
2022/08/07 05:44:26;;;;;;;1999.90;999.90;;;10.60;99.90;;;;;;4937997;29;20432;-74
2022/08/07 05:46:52;;;;;;;1999.90;999.90;;;10.80;99.90;;;;;;4992035;28;20134;-74
2022/08/07 05:49:19;;;;;;;1999.90;999.90;;;11.10;99.90;;;;;;5035117;28;20124;-75
2022/08/07 05:51:45;;;;;;;1999.90;999.90;;;11.40;99.90;;;;;;5025645;28;20037;-74
2022/08/07 05:54:11;;;;;;;1999.90;999.90;;;11.90;99.90;;;;;;5029738;28;20047;-74
2022/08/07 05:56:42;;;;;;;1999.90;999.90;;;12.70;99.90;;;;;;5025171;28;20522;-74
2022/08/07 05:59:14;;;;;;;1999.90;999.90;;;13.40;99.90;;;;;;5025199;28;20121;-74
2022/08/07 06:01:41;;;;;;;1999.90;999.90;;;13.80;99.90;;;;;;5061031;28;20134;-74
2022/08/07 06:04:09;;;;;;;1999.90;999.90;;;14.70;99.90;;;;;;5086684;28;20048;-74
2022/08/07 06:06:34;;;;;;;1999.90;999.90;;;15.40;99.90;;;;;;5075171;28;20036;-75
2022/08/07 06:09:02;;;;;;;1999.90;999.90;;;15.40;99.90;;;;;;5110207;28;20042;-75
2022/08/07 06:11:28;;;;;;;1999.90;999.90;;;15.10;99.90;;;;;;5106146;28;20481;-74
2022/08/07 06:13:54;;;;;;;1999.90;999.90;;;14.80;99.90;;;;;;5087468;28;20467;-74
2022/08/07 06:16:22;;;;;;;1999.90;999.90;;;14.60;99.90;;;;;;5107289;28;20132;-75
2022/08/07 06:18:48;;;;;;;1999.90;999.90;;;14.50;99.90;;;;;;5094643;28;20044;-75
2022/08/07 06:21:14;;;;;;;1999.90;999.90;;;14.40;99.90;;;;;;5101571;28;20119;-74
2022/08/07 06:23:40;;;;;;;1999.90;999.90;;;14.50;99.90;;;;;;5106103;28;20036;-74
2022/08/07 06:26:10;;;;;;;1999.90;999.90;;;14.50;99.90;;;;;;5102692;28;20617;-75
2022/08/07 06:28:54;;;;;;;1999.90;999.90;;;14.50;99.90;;;;;;5105642;28;20118;-74
2022/08/07 06:31:20;;;;;;;1999.90;999.90;;;14.70;99.90;;;;;;5113139;28;20044;-75
2022/08/07 06:33:47;;;;;;;1999.90;999.90;;;15.50;99.90;;;;;;5106899;28;20043;-74
2022/08/07 06:36:13;;;;;;;1999.90;999.90;;;16.80;99.90;;;;;;5102494;28;20110;-74
2022/08/07 06:38:40;;;;;;;1999.90;999.90;;;17.40;99.90;;;;;;5103461;28;20039;-74
2022/08/07 06:41:23;;;;;;;1999.90;999.90;;;17.60;99.90;;;;;;5127646;27;20055;-74
2022/08/07 06:43:49;;;;;;;;;;;17.60;99.90;;;;;;5110985;28;20035;-74
2022/08/07 06:46:15;;;;;;;1999.90;999.90;;;17.60;99.90;;;;;;5138732;27;19920;-74
2022/08/07 06:48:41;;;;;;;1999.90;999.90;;;17.70;99.90;;;;;;5111024;28;20067;-74
2022/08/07 06:51:09;;;;;;;1999.90;999.90;;;17.60;99.90;;;;;;5140509;27;20709;-74
2022/08/07 06:53:38;;;;;;;1999.90;999.90;;;18.00;99.90;;;;;;5132769;27;20125;-74
2022/08/07 06:56:05;;;;;;;1999.90;999.90;;;18.60;99.90;;;;;;5114323;27;20464;-74
2022/08/07 06:58:34;;;;;;;1999.90;999.90;;;19.30;99.90;;;;;;5108017;27;20050;-74
2022/08/07 07:01:01;;;;;;;1999.90;999.90;;;20.30;99.90;;;;;;5124019;27;20144;-74
2022/08/07 07:03:27;;;;;;;1999.90;999.90;;;21.30;99.90;;;;;;5139186;27;20110;-74
2022/08/07 07:05:53;;;;;;;1999.90;999.90;;;22.30;99.90;;;;;;5131168;27;20054;-74
2022/08/07 07:08:25;;;;;;;1999.90;999.90;;;22.90;99.90;;;;;;5127451;27;20077;-75
2022/08/07 07:10:51;;;;;;;1999.90;999.90;;;23.30;99.90;;;;;;5112782;27;20237;-75
2022/08/07 07:13:27;;;;;;;1999.90;999.90;;;23.20;99.10;;;;;;5128938;27;20118;-74
2022/08/07 07:15:59;;;;;;;1999.90;999.90;;;23.40;99.90;;;;;;5124208;27;20038;-75
2022/08/07 07:18:33;;;;;;;1999.90;999.90;;;23.80;99.40;;;;;;5109433;27;20403;-75
2022/08/07 07:21:05;;;;;;;1999.90;999.90;;;24.10;98.10;;;;;;5108529;27;20446;-74
2022/08/07 07:23:32;;;;;;;1999.90;999.90;;;23.90;95.20;;;;;;5129858;27;20039;-75
2022/08/07 07:26:01;;;;;;;1999.90;999.90;;;23.50;94.20;;;;;;5131768;27;20039;-75
2022/08/07 07:28:33;;;;;;;1999.90;999.90;;;22.60;94.70;;;;;;5132888;27;20554;-75
2022/08/07 07:31:03;;;;;;;1999.90;999.90;;;21.70;95.00;;;;;;5128895;27;20118;-74
2022/08/07 07:33:32;;;;;;;1999.90;999.90;;;20.90;95.70;;;;;;5108458;27;20548;-74
2022/08/07 07:35:59;;;;;;;1999.90;999.90;;;20.40;97.50;;;;;;5133338;27;20548;-75
2022/08/07 07:38:25;;;;;;;1999.90;999.90;;;20.10;97.60;;;;;;5136638;27;20039;-75
2022/08/07 07:40:54;;;;;;;1999.90;999.90;;;20.10;98.10;;;;;;5130593;27;20066;-74
2022/08/07 07:43:21;;;;;;;1999.90;999.90;;;20.00;98.70;;;;;;5131495;27;20051;-75
2022/08/07 07:45:49;;;;;;;1999.90;999.90;;;19.80;98.50;;;;;;5131302;27;20126;-74
2022/08/07 07:48:19;;;;;;;1999.90;999.90;;;19.50;98.30;;;;;;5130729;27;20114;-75
2022/08/07 07:50:47;;;;;;;1999.90;999.90;;;19.30;98.60;;;;;;5123194;27;20077;-75
2022/08/07 07:53:14;;;;;;;1999.90;999.90;;;19.10;98.90;;;;;;5131663;27;20448;-74
2022/08/07 07:55:40;;;;;;;1999.90;999.90;;;19.10;99.20;;;;;;5132053;27;20122;-75
2022/08/07 07:58:12;;;;;;;1999.90;999.90;;;19.00;99.60;;;;;;5127279;27;20572;-75
2022/08/07 08:00:38;;;;;;;1999.90;999.90;;;18.90;99.50;;;;;;5127119;27;20069;-74
2022/08/07 08:03:08;;;;;;;1999.90;999.90;;;18.80;99.90;;;;;;5133119;27;20459;-74
2022/08/07 08:05:39;;;;;;;1999.90;999.90;;;18.80;99.90;;;;;;5138749;27;20039;-74
2022/08/07 08:08:07;;;;;;;1999.90;999.90;;;18.90;99.90;;;;;;5095216;27;20045;-74
2022/08/07 08:10:33;;;;;;;1999.90;999.90;;;18.80;99.90;;;;;;5102603;27;20050;-75
2022/08/07 08:13:00;;;;;;;1999.90;999.90;;;18.80;99.90;;;;;;5095266;27;20046;-75
2022/08/07 08:15:30;;;;;;;1999.90;999.90;;;18.80;99.90;;;;;;5108741;27;20035;-75
2022/08/07 08:17:57;;;;;;;1999.90;999.90;;;18.90;99.90;;;;;;5128966;27;20038;-74
2022/08/07 08:20:24;;;;;;;1999.90;999.90;;;18.90;99.90;;;;;;5113874;27;20031;-75
2022/08/07 08:28:27;;;;;;;1999.90;999.90;;;19.20;99.90;;;;;;5129556;27;20114;-75
2022/08/07 08:30:57;;;;;;;1999.90;999.90;;;19.10;99.90;;;;;;5129337;27;20050;-75
2022/08/07 08:33:35;;;;;;;1999.90;999.90;;;19.20;99.90;;;;;;5127478;27;20047;-75
2022/08/07 08:36:02;;;;;;;1999.90;999.90;;;19.30;99.20;;;;;;5129076;27;20058;-75
2022/08/07 08:38:32;;;;;;;1999.90;999.90;;;19.30;99.30;;;;;;5129630;27;20064;-75
2022/08/07 08:41:09;;;;;;;1999.90;999.90;;;19.30;99.10;;;;;;5129321;27;20054;-76
2022/08/07 08:43:44;;;;;;;1999.90;999.90;;;19.40;99.30;;;;;;5129101;27;20121;-75
2022/08/07 08:46:27;;;;;;;1999.90;999.90;;;19.40;98.40;;;;;;5127701;27;20526;-75
2022/08/07 08:49:15;;;;;;;1999.90;999.90;;;19.60;99.40;;;;;;5132402;27;20043;-76
2022/08/07 08:52:03;;;;;;;1999.90;999.90;;;20.30;99.30;;;;;;5126642;27;20047;-76
2022/08/07 08:54:37;;;;;;;1999.90;999.90;;;20.90;96.60;;;;;;5130542;27;20102;-76
2022/08/07 08:57:11;;;;;;;1999.90;999.90;;;21.20;97.00;;;;;;5138392;27;20042;-76
2022/08/07 08:59:39;;;;;;;1999.90;999.90;;;21.10;96.70;;;;;;5094963;28;20036;-76
2022/08/07 09:02:18;;;;;;;1999.90;999.90;;;21.70;97.10;;;;;;5137171;27;20114;-76
2022/08/07 09:05:11;;;;;;;1999.90;999.90;;;21.70;94.60;;;;;;5098043;27;20190;-75
2022/08/07 09:07:52;;;;;;;1999.90;999.90;;;21.30;94.40;;;;;;5132122;27;20047;-76
2022/08/07 09:10:26;;;;;;;1999.90;999.90;;;21.20;95.60;;;;;;5133343;27;20204;-76
2022/08/07 09:13:17;;;;;;;1999.90;999.90;;;22.10;96.30;;;;;;5133329;27;20117;-75
2022/08/07 09:15:47;;;;;;;1999.90;999.90;;;23.00;93.70;;;;;;5129649;27;20047;-75
2022/08/07 09:18:27;;;;;;;1999.90;999.90;;;23.60;91.80;;;;;;5108731;27;20035;-76
2022/08/07 09:21:18;;;;;;;1999.90;999.90;;;24.20;91.70;;;;;;5126993;27;20084;-75
2022/08/07 09:23:46;;;;;;;1999.90;999.90;;;24.40;90.70;;;;;;5136980;27;20066;-76
2022/08/07 09:26:21;;;;;;;1999.90;999.90;;;24.90;88.20;;;;;;5112477;27;20035;-76
2022/08/07 09:29:11;;;;;;;1999.90;999.90;;;25.40;88.60;;;;;;5093708;27;20050;-75
2022/08/07 09:31:40;;;;;;;1999.90;999.90;;;25.80;86.70;;;;;;5130930;27;20050;-75
2022/08/07 09:34:11;;;;;;;1999.90;999.90;;;26.00;83.20;;;;;;5128546;27;20130;-76
2022/08/07 09:37:00;;;;;;;1999.90;999.90;;;26.30;84.90;;;;;;5121127;27;20043;-75
2022/08/07 09:40:03;;;;;;;1999.90;999.90;;;26.30;80.90;;;;;;5138552;27;20051;-75
2022/08/07 09:42:57;;;;;;;1999.90;999.90;;;26.40;80.50;;;;;;5119163;27;20039;-76
2022/08/07 09:45:35;;;;;;;1999.90;999.90;;;26.80;79.00;;;;;;5118048;28;20038;-74
2022/08/07 09:48:11;;;;;;;1999.90;999.90;;;26.90;76.80;;;;;;5134149;27;20163;-75
2022/08/07 09:50:59;;;;;;;1999.90;999.90;;;27.00;75.20;;;;;;5129500;27;20445;-75
2022/08/07 09:53:27;;;;;;;1999.90;999.90;;;27.00;74.50;;;;;;5138763;27;20039;-76
2022/08/07 09:56:39;;;;;;;1999.90;999.90;;;27.00;73.70;;;;;;5129990;27;20070;-76
2022/08/07 09:59:13;;;;;;;1999.90;999.90;;;26.90;69.40;;;;;;5109540;27;20039;-76
2022/08/07 10:02:12;;;;;;;1999.90;999.90;;;27.20;70.70;;;;;;5122840;27;20039;-75
2022/08/07 10:05:25;;;;;;;1999.90;999.90;;;27.20;70.00;;;;;;5128389;27;20066;-75
2022/08/07 10:08:03;;;;;;;1999.90;999.90;;;27.10;69.90;;;;;;5058247;28;20044;-75
2022/08/07 10:10:50;;;;;;;1999.90;999.90;;;27.00;68.00;;;;;;5124616;27;20078;-75
2022/08/07 10:13:24;;;;;;;1999.90;999.90;;;26.60;67.60;;;;;;5125554;27;20084;-75
2022/08/07 10:16:20;;;;;;;1999.90;999.90;;;26.50;68.60;;;;;;5110550;27;20061;-75
2022/08/07 10:18:59;;;;;;;1999.90;999.90;;;26.30;66.10;;;;;;5098067;27;20089;-76
2022/08/07 10:21:47;;;;;;;1999.90;999.90;;;26.00;67.20;;;;;;5130467;27;20039;-76
2022/08/07 10:24:36;;;;;;;1999.90;999.90;;;25.90;69.10;;;;;;5129303;27;20085;-75
2022/08/07 10:27:23;;;;;;;1999.90;999.90;;;26.10;65.90;;;;;;5095469;27;20051;-75
2022/08/07 10:30:06;;;;;;;1999.90;999.90;;;26.20;65.90;;;;;;5134073;27;20032;-76
2022/08/07 10:32:41;;;;;;;1999.90;999.90;;;26.20;67.00;;;;;;5136726;27;20045;-75
2022/08/07 10:35:18;;;;;;;1999.90;999.90;;;26.00;64.50;;;;;;5116642;27;20062;-75
2022/08/07 10:38:16;;;;;;;1999.90;999.90;;;25.30;63.80;;;;;;5135545;27;20038;-75
2022/08/07 10:40:50;;;;;;;1999.90;999.90;;;24.70;66.50;;;;;;5096477;27;20058;-75
2022/08/07 10:43:25;;;;;;;1999.90;999.90;;;24.80;66.10;;;;;;5117607;27;20082;-75
2022/08/07 10:46:06;;;;;;;1999.90;999.90;;;25.00;66.10;;;;;;5093518;27;20027;-75
2022/08/07 10:49:13;;;;;;;1999.90;999.90;;;25.30;66.10;;;;;;5116221;27;20087;-75
2022/08/07 10:51:52;;;;;;;1999.90;999.90;;;25.40;65.30;;;;;;5079920;27;20052;-75
2022/08/07 10:54:36;;;;;;;1999.90;999.90;;;25.30;65.00;;;;;;5123864;27;20043;-76
2022/08/07 10:57:17;;;;;;;1999.90;999.90;;;25.00;65.40;;;;;;5094930;28;20036;-75
2022/08/07 11:00:03;;;;;;;1999.90;999.90;;;24.80;64.80;;;;;;5112860;27;20114;-76
2022/08/07 11:02:40;;;;;;;1999.90;999.90;;;24.70;69.20;;;;;;5089073;27;20038;-75
2022/08/07 11:05:24;;;;;;;1999.90;999.90;;;25.00;67.50;;;;;;5112214;27;20434;-75
2022/08/07 11:08:15;;;;;;;1999.90;999.90;;;25.20;66.50;;;;;;5119002;27;20039;-76
2022/08/07 11:10:58;;;;;;;1999.90;999.90;;;25.60;63.70;;;;;;5119342;27;20043;-75
2022/08/07 11:13:48;;;;;;;1999.90;999.90;;;25.60;64.80;;;;;;5115917;27;20039;-75
2022/08/07 11:16:30;;;;;;;1999.90;999.90;;;25.70;64.80;;;;;;5111556;27;20044;-75
2022/08/07 11:19:04;;;;;;;1999.90;999.90;;;25.80;64.20;;;;;;5114866;27;20042;-75
2022/08/07 11:21:35;;;;;;;1999.90;999.90;;;25.70;64.30;;;;;;5101101;27;20090;-75
2022/08/07 11:24:10;;;;;;;1999.90;999.90;;;25.10;64.60;;;;;;5080956;27;20085;-75
2022/08/07 11:26:44;;;;;;;1999.90;999.90;;;24.60;64.90;;;;;;5117929;27;20058;-75
2022/08/07 11:29:40;;;;;;;1999.90;999.90;;;24.50;66.70;;;;;;5124027;27;20078;-75
2022/08/07 11:32:47;;;;;;;1999.90;999.90;;;24.80;66.80;;;;;;5107696;27;21375;-75
2022/08/07 11:35:23;;;;;;;1999.90;999.90;;;25.40;65.80;;;;;;5075231;27;20077;-75
2022/08/07 11:38:15;;;;;;;1999.90;999.90;;;25.70;65.60;;;;;;5108601;27;20077;-75
2022/08/07 11:40:41;;;;;;;1999.90;999.90;;;26.10;68.90;;;;;;5119744;27;20052;-75
2022/08/07 11:43:29;;;;;;;1999.90;999.90;;;26.50;65.00;;;;;;5138881;27;20047;-76
2022/08/07 11:45:58;;;;;;;1999.90;999.90;;;26.70;65.80;;;;;;5111204;27;20493;-75
2022/08/07 11:48:45;;;;;;;1999.90;999.90;;;26.50;64.70;;;;;;5108787;27;20418;-75
2022/08/07 11:51:49;;;;;;;1999.90;999.90;;;25.80;62.30;;;;;;5130372;27;20041;-75
2022/08/07 11:54:37;;;;;;;1999.90;999.90;;;25.00;63.60;;;;;;5126097;27;20116;-75
2022/08/07 11:57:05;;;;;;;1999.90;999.90;;;24.20;64.90;;;;;;5110562;27;20039;-75
2022/08/07 12:00:05;;;;;;;1999.90;999.90;;;23.80;65.60;;;;;;5119716;27;20708;-75
2022/08/07 12:02:58;;;;;;;1999.90;999.90;;;23.40;66.30;;;;;;5108305;27;20128;-75
2022/08/07 12:05:24;;;;;;;1999.90;999.90;;;23.20;67.20;;;;;;5135096;27;20027;-75
2022/08/07 12:07:55;;;;;;;1999.90;999.90;;;23.40;67.20;;;;;;5099043;27;20445;-75
2022/08/07 12:10:51;;;;;;;1999.90;999.90;;;23.20;67.10;;;;;;5139149;27;20402;-76
2022/08/07 12:13:25;;;;;;;1999.90;999.90;;;23.00;68.10;;;;;;5119790;27;20047;-75
2022/08/07 12:16:00;;;;;;;1999.90;999.90;;;22.90;68.30;;;;;;5139099;27;20482;-75
2022/08/07 12:18:33;;;;;;;1999.90;999.90;;;23.00;68.20;;;;;;5136504;27;20039;-75
2022/08/07 12:21:39;;;;;;;1999.90;999.90;;;23.00;68.50;;;;;;5139073;27;20055;-75
2022/08/07 12:24:21;;;;;;;1999.90;999.90;;;23.00;68.50;;;;;;5101282;27;20047;-75
2022/08/07 12:27:00;;;;;;;1999.90;999.90;;;22.90;67.50;;;;;;5136057;27;20038;-74
2022/08/07 12:29:40;;;;;;;1999.90;999.90;;;22.60;69.00;;;;;;5126624;27;20518;-74
2022/08/07 12:32:33;;;;;;;1999.90;999.90;;;22.50;69.30;;;;;;5114897;27;20057;-74
2022/08/07 12:35:03;;;;;;;1999.90;999.90;;;22.40;69.50;;;;;;5108498;27;20091;-74
2022/08/07 12:37:29;;;;;;;1999.90;999.90;;;22.20;69.80;;;;;;5135704;27;20035;-75